createdAt,value
2023-04-20T00:00:28.715Z,42.50
2023-04-20T00:02:55.339Z,42.30
2023-04-20T00:05:21.908Z,42.30
2023-04-20T00:07:48.437Z,42.10
2023-04-20T00:10:14.980Z,42.40
2023-04-20T00:12:41.465Z,42.20
2023-04-20T00:15:07.943Z,43.20
2023-04-20T00:17:34.479Z,42.10
2023-04-20T00:20:00.998Z,42.00
2023-04-20T00:22:27.538Z,42.10
2023-04-20T00:24:54.067Z,42.20
2023-04-20T00:27:20.638Z,41.80
2023-04-20T00:29:47.138Z,41.60
2023-04-20T00:32:13.650Z,42.10
2023-04-20T00:34:40.147Z,41.90
2023-04-20T00:37:06.674Z,41.90
2023-04-20T00:39:33.162Z,42.00
2023-04-20T00:41:59.649Z,42.10
2023-04-20T00:44:26.170Z,42.00
2023-04-20T00:46:52.716Z,41.80
2023-04-20T00:49:19.577Z,41.70
2023-04-20T00:51:46.256Z,41.70
2023-04-20T00:54:12.775Z,41.60
2023-04-20T00:56:39.256Z,41.60
2023-04-20T00:59:05.773Z,41.70
2023-04-20T01:01:32.365Z,41.80
2023-04-20T01:03:59.132Z,41.70
2023-04-20T01:06:25.712Z,41.60
2023-04-20T01:08:52.288Z,41.70
2023-04-20T01:11:18.832Z,41.30
2023-04-20T01:13:45.369Z,41.40
2023-04-20T01:16:11.985Z,41.70
2023-04-20T01:18:38.609Z,41.60
2023-04-20T01:21:05.134Z,41.50
2023-04-20T01:23:31.652Z,41.10
2023-04-20T01:25:58.188Z,41.60
2023-04-20T01:28:24.727Z,41.80
2023-04-20T01:30:51.266Z,41.60
2023-04-20T01:33:17.786Z,41.60
2023-04-20T01:35:44.311Z,41.40
2023-04-20T01:38:10.829Z,41.50
2023-04-20T01:40:37.397Z,41.40
2023-04-20T01:43:03.916Z,41.90
2023-04-20T01:45:30.411Z,41.30
2023-04-20T01:47:56.934Z,41.50
2023-04-20T01:50:23.481Z,41.20
2023-04-20T01:52:50.054Z,41.40
2023-04-20T01:55:17.854Z,41.30
2023-04-20T01:57:45.401Z,41.60
2023-04-20T02:00:11.908Z,41.30
2023-04-20T02:02:38.537Z,41.10
2023-04-20T02:05:05.225Z,41.00
2023-04-20T02:07:31.778Z,41.30
2023-04-20T02:09:58.317Z,41.50
2023-04-20T02:12:24.816Z,41.40
2023-04-20T02:14:51.329Z,41.30
2023-04-20T02:17:18.007Z,41.60
2023-04-20T02:22:11.768Z,41.60
2023-04-20T02:24:38.304Z,41.40
2023-04-20T02:27:04.823Z,41.70
2023-04-20T02:29:31.345Z,41.90
2023-04-20T02:31:57.861Z,41.40
2023-04-20T02:34:24.395Z,41.40
2023-04-20T02:36:50.953Z,41.30
2023-04-20T02:39:17.740Z,41.50
2023-04-20T02:41:44.421Z,41.80
2023-04-20T02:44:10.971Z,41.20
2023-04-20T02:46:47.193Z,41.30
2023-04-20T02:49:13.768Z,41.30
2023-04-20T02:51:40.279Z,40.90
2023-04-20T02:56:33.865Z,41.10
2023-04-20T02:59:00.405Z,41.30
2023-04-20T03:01:26.972Z,41.10
2023-04-20T03:03:53.775Z,41.00
2023-04-20T03:08:47.467Z,41.00
2023-04-20T03:11:14.052Z,41.20
2023-04-20T03:13:40.610Z,40.90
2023-04-20T03:16:07.125Z,40.80
2023-04-20T03:18:33.625Z,41.30
2023-04-20T03:21:00.144Z,40.70
2023-04-20T03:23:26.662Z,41.00
2023-04-20T03:28:20.189Z,41.00
2023-04-20T03:33:13.812Z,41.00
2023-04-20T03:35:40.390Z,40.70
2023-04-20T03:38:06.943Z,40.90
2023-04-20T03:40:33.466Z,40.80
2023-04-20T03:43:00.013Z,40.80
2023-04-20T03:45:26.528Z,40.30
2023-04-20T03:47:53.028Z,40.70
2023-04-20T03:52:46.632Z,40.30
2023-04-20T03:55:13.158Z,40.70
2023-04-20T03:57:39.731Z,40.70
2023-04-20T04:00:06.236Z,40.60
2023-04-20T04:02:33.027Z,40.50
2023-04-20T04:04:59.697Z,40.30
2023-04-20T04:07:26.288Z,40.80
2023-04-20T04:09:52.808Z,40.90
2023-04-20T04:12:19.392Z,40.60
2023-04-20T04:14:45.886Z,40.40
2023-04-20T04:17:12.457Z,40.70
2023-04-20T04:19:38.979Z,40.50
2023-04-20T04:22:05.505Z,40.90
2023-04-20T04:24:32.030Z,40.50
2023-04-20T04:26:58.563Z,40.40
2023-04-20T04:29:25.157Z,40.70
2023-04-20T04:31:51.789Z,40.30
2023-04-20T04:34:18.504Z,40.30
2023-04-20T04:36:45.025Z,40.80
2023-04-20T04:39:11.575Z,40.90
2023-04-20T04:41:38.081Z,40.90
2023-04-20T04:44:04.639Z,40.40
2023-04-20T04:46:31.217Z,40.60
2023-04-20T04:48:57.743Z,40.50
2023-04-20T04:51:24.272Z,40.50
2023-04-20T04:53:50.762Z,40.30
2023-04-20T04:56:17.317Z,40.70
2023-04-20T04:58:43.855Z,40.70
2023-04-20T05:01:10.386Z,40.60
2023-04-20T05:03:37.116Z,40.70
2023-04-20T05:06:03.691Z,41.00
2023-04-20T05:08:30.169Z,40.60
2023-04-20T05:10:56.702Z,42.00
2023-04-20T05:13:23.237Z,41.50
2023-04-20T05:15:49.804Z,41.30
2023-04-20T05:18:16.348Z,41.40
2023-04-20T05:20:42.945Z,41.20
2023-04-20T05:25:36.527Z,41.50
2023-04-20T05:28:03.073Z,40.70
2023-04-20T05:30:29.626Z,41.60
2023-04-20T05:32:56.238Z,41.90
2023-04-20T05:35:22.804Z,41.40
2023-04-20T05:37:49.380Z,41.50
2023-04-20T05:40:16.004Z,41.50
2023-04-20T05:45:09.672Z,41.80
2023-04-20T05:47:36.228Z,42.20
2023-04-20T05:52:29.841Z,42.10
2023-04-20T05:54:56.379Z,42.00
2023-04-20T05:59:49.966Z,41.50
2023-04-20T06:02:16.554Z,41.50
2023-04-20T06:04:43.351Z,41.70
2023-04-20T06:07:10.031Z,41.40
2023-04-20T06:09:36.571Z,41.80
2023-04-20T06:12:03.082Z,41.40
2023-04-20T06:14:29.587Z,41.70
2023-04-20T06:16:56.139Z,42.10
2023-04-20T06:19:22.647Z,41.60
2023-04-20T06:21:49.163Z,41.30
2023-04-20T06:24:15.673Z,41.60
2023-04-20T06:29:09.354Z,40.80
2023-04-20T06:31:35.945Z,41.10
2023-04-20T06:34:02.533Z,40.90
2023-04-20T06:36:29.094Z,41.20
2023-04-20T06:38:55.591Z,40.90
2023-04-20T06:41:22.152Z,41.00
2023-04-20T06:46:15.801Z,40.80
2023-04-20T06:48:42.366Z,41.80
2023-04-20T06:51:08.927Z,40.80
2023-04-20T06:53:35.438Z,41.70
2023-04-20T06:56:01.912Z,40.60
2023-04-20T06:58:28.449Z,40.80
2023-04-20T07:00:54.950Z,40.70
2023-04-20T07:05:48.783Z,40.70
2023-04-20T07:08:15.271Z,40.60
2023-04-20T07:10:41.807Z,40.60
2023-04-20T07:13:08.295Z,41.20
2023-04-20T07:15:34.833Z,40.80
2023-04-20T07:18:01.397Z,40.70
2023-04-20T07:22:55.115Z,40.40
2023-04-20T07:25:21.659Z,40.60
2023-04-20T07:30:15.242Z,40.50
2023-04-20T07:32:41.906Z,40.80
2023-04-20T07:35:08.475Z,41.30
2023-04-20T07:37:35.045Z,40.80
2023-04-20T07:40:01.620Z,40.80
2023-04-20T07:42:28.155Z,40.60
2023-04-20T07:44:54.654Z,41.00
2023-04-20T07:47:21.251Z,41.50
2023-04-20T07:49:47.912Z,40.30
2023-04-20T07:52:17.277Z,40.80
2023-04-20T07:54:44.101Z,40.70
2023-04-20T07:57:10.630Z,40.60
2023-04-20T07:59:37.161Z,40.30
2023-04-20T08:02:03.782Z,40.40
2023-04-20T08:04:30.731Z,40.20
2023-04-20T08:06:57.410Z,40.90
2023-04-20T08:09:23.949Z,40.80
2023-04-20T08:11:50.440Z,40.50
2023-04-20T08:14:17.173Z,41.00
2023-04-20T08:16:43.891Z,40.70
2023-04-20T08:19:10.447Z,40.40
2023-04-20T08:21:36.977Z,41.40
2023-04-20T08:24:03.526Z,40.70
2023-04-20T08:26:30.090Z,40.30
2023-04-20T08:28:56.653Z,41.00
2023-04-20T08:31:23.213Z,41.20
2023-04-20T08:33:49.737Z,40.30
2023-04-20T08:36:16.378Z,40.50
2023-04-20T08:38:42.928Z,40.50
2023-04-20T08:41:09.471Z,40.40
2023-04-20T08:43:36.001Z,40.30
2023-04-20T08:46:02.614Z,40.30
2023-04-20T08:48:29.673Z,40.40
2023-04-20T08:50:56.732Z,40.90
2023-04-20T08:53:23.316Z,40.20
2023-04-20T08:55:49.825Z,40.40
2023-04-20T08:58:16.362Z,40.10
2023-04-20T09:00:42.848Z,40.20
2023-04-20T09:03:09.512Z,40.20
2023-04-20T09:05:36.076Z,40.10
2023-04-20T09:08:02.605Z,40.30
2023-04-20T09:10:29.204Z,40.50
2023-04-20T09:12:55.784Z,40.00
2023-04-20T09:15:22.308Z,40.30
2023-04-20T09:22:58.434Z,41.00
2023-04-20T09:25:25.606Z,40.10
2023-04-20T09:36:08.347Z,40.20
2023-04-20T09:38:34.872Z,41.00
2023-04-20T09:41:01.351Z,40.40
2023-04-20T09:43:27.862Z,40.10
2023-04-20T09:45:54.345Z,40.20
2023-04-20T09:48:20.845Z,40.70
2023-04-20T09:50:50.123Z,40.30
2023-04-20T09:53:17.929Z,40.10
2023-04-20T09:55:44.397Z,40.60
2023-04-20T09:58:10.908Z,40.20
2023-04-20T10:00:37.386Z,40.80
2023-04-20T10:03:04.006Z,40.60
2023-04-20T10:05:30.555Z,40.00
2023-04-20T10:07:57.041Z,40.70
2023-04-20T10:10:23.601Z,40.70
2023-04-20T10:12:50.132Z,40.30
2023-04-20T10:15:16.655Z,40.80
2023-04-20T10:17:43.233Z,39.90
2023-04-20T10:20:09.744Z,40.50
2023-04-20T10:22:36.208Z,39.90
2023-04-20T10:25:02.645Z,41.10
2023-04-20T10:27:29.278Z,41.00
2023-04-20T10:29:55.757Z,41.20
2023-04-20T10:32:22.302Z,41.60
2023-04-20T10:40:29.117Z,41.40
2023-04-20T10:45:39.570Z,41.40
2023-04-20T10:50:50.213Z,41.40
2023-04-20T10:53:16.710Z,40.70
2023-04-20T10:55:43.199Z,40.90
2023-04-20T10:58:09.717Z,41.50
2023-04-20T11:00:36.248Z,41.50
2023-04-20T11:03:02.834Z,41.30
2023-04-20T11:05:29.403Z,41.00
2023-04-20T11:07:55.911Z,41.50
2023-04-20T11:10:22.389Z,41.00
2023-04-20T11:15:15.940Z,41.00
2023-04-20T11:17:42.453Z,41.60
2023-04-20T11:20:09.021Z,41.70
2023-04-20T11:22:35.493Z,41.70
2023-04-20T11:25:02.018Z,41.10
2023-04-20T11:27:28.511Z,41.70
2023-04-20T11:29:54.988Z,40.90
2023-04-20T11:32:21.560Z,41.20
2023-04-20T11:34:53.071Z,40.80
2023-04-20T11:37:22.528Z,41.20
2023-04-20T11:39:49.037Z,41.70
2023-04-20T11:42:15.538Z,41.10
2023-04-20T11:44:42.038Z,41.10
2023-04-20T11:47:08.510Z,41.60
2023-04-20T11:49:34.984Z,41.70
2023-04-20T11:52:01.437Z,41.10
2023-04-20T11:54:27.912Z,41.30
2023-04-20T11:56:54.420Z,41.20
2023-04-20T11:59:21.345Z,41.60
2023-04-20T12:01:48.461Z,41.10
2023-04-20T12:04:15.753Z,41.60
2023-04-20T12:06:42.674Z,41.60
2023-04-20T12:09:09.220Z,41.10
2023-04-20T12:11:35.734Z,41.70
2023-04-20T12:14:02.247Z,41.00
2023-04-20T12:16:28.732Z,41.00
2023-04-20T12:18:55.305Z,41.10
2023-04-20T12:21:21.786Z,41.10
2023-04-20T12:23:48.283Z,41.50
2023-04-20T12:26:14.747Z,40.90
2023-04-20T12:28:41.197Z,41.60
2023-04-20T12:31:07.753Z,41.60
2023-04-20T12:33:34.293Z,41.60
2023-04-20T12:36:00.774Z,41.00
2023-04-20T12:38:27.282Z,41.20
2023-04-20T12:40:53.765Z,41.20
2023-04-20T12:43:20.263Z,41.00
2023-04-20T12:45:46.733Z,41.10
2023-04-20T12:48:13.273Z,41.60
2023-04-20T12:50:39.787Z,40.90
2023-04-20T12:53:06.288Z,41.00
2023-04-20T12:55:32.744Z,41.00
2023-04-20T12:57:59.260Z,41.10
2023-04-20T13:00:25.754Z,41.10
2023-04-20T13:02:52.323Z,41.20
2023-04-20T13:05:18.881Z,41.20
2023-04-20T13:07:45.400Z,41.00
2023-04-20T13:10:11.849Z,41.50
2023-04-20T13:12:38.358Z,41.50
2023-04-20T13:15:04.820Z,41.10
2023-04-20T13:17:31.323Z,41.50
2023-04-20T13:19:57.811Z,40.90
2023-04-20T13:22:24.257Z,41.50
2023-04-20T13:24:50.706Z,41.20
2023-04-20T13:27:17.154Z,41.00
2023-04-20T13:29:43.637Z,41.50
2023-04-20T13:32:10.249Z,41.10
2023-04-20T13:34:36.858Z,41.60
2023-04-20T13:37:03.392Z,41.60
2023-04-20T13:39:29.902Z,41.70
2023-04-20T13:41:56.410Z,40.70
2023-04-20T13:44:22.854Z,41.60
2023-04-20T13:46:49.317Z,41.10
2023-04-20T13:49:15.767Z,41.00
2023-04-20T13:51:42.239Z,41.60
2023-04-20T13:54:08.729Z,41.10
2023-04-20T13:56:35.263Z,41.60
2023-04-20T13:59:01.709Z,41.10
2023-04-20T14:01:28.275Z,41.60
2023-04-20T14:03:54.974Z,41.00
2023-04-20T14:06:21.487Z,41.50
2023-04-20T14:08:47.969Z,41.10
2023-04-20T14:11:14.463Z,41.70
2023-04-20T14:13:40.941Z,41.10
2023-04-20T14:16:07.504Z,41.40
2023-04-20T14:18:34.050Z,41.10
2023-04-20T14:21:00.507Z,41.30
2023-04-20T14:23:26.968Z,40.90
2023-04-20T14:25:53.453Z,41.60
2023-04-20T14:28:19.907Z,41.20
2023-04-20T14:30:46.418Z,41.10
2023-04-20T14:33:12.910Z,41.30
2023-04-20T14:35:39.430Z,41.30
2023-04-20T14:38:05.905Z,41.20
2023-04-20T14:40:32.418Z,41.20
2023-04-20T14:42:58.908Z,41.80
2023-04-20T14:45:25.774Z,41.30
2023-04-20T14:47:52.323Z,41.30
2023-04-20T14:50:19.148Z,41.80
2023-04-20T14:52:45.605Z,41.10
2023-04-20T14:55:12.076Z,41.30
2023-04-20T14:57:38.551Z,41.30
2023-04-20T15:00:05.088Z,40.90
2023-04-20T15:02:31.673Z,41.00
2023-04-20T15:04:58.641Z,41.20
2023-04-20T15:07:25.374Z,41.10
2023-04-20T15:09:51.874Z,41.70
2023-04-20T15:12:18.433Z,41.80
2023-04-20T15:14:44.911Z,41.90
2023-04-20T15:17:11.388Z,41.40
2023-04-20T15:19:37.942Z,41.80
2023-04-20T15:22:04.522Z,42.00
2023-04-20T15:24:31.145Z,41.50
2023-04-20T15:26:57.764Z,41.80
2023-04-20T15:29:24.284Z,42.10
2023-04-20T15:31:50.837Z,42.20
2023-04-20T15:34:17.844Z,41.60
2023-04-20T15:36:44.634Z,42.10
2023-04-20T15:39:11.112Z,42.00
2023-04-20T15:41:37.639Z,42.00
2023-04-20T15:44:04.118Z,41.60
2023-04-20T15:46:30.790Z,42.00
2023-04-20T15:48:57.404Z,41.80
2023-04-20T15:51:23.950Z,42.00
2023-04-20T15:53:50.582Z,41.50
2023-04-20T15:56:17.209Z,42.10
2023-04-20T15:58:43.908Z,41.70
2023-04-20T16:01:10.373Z,42.00
2023-04-20T16:03:37.074Z,41.50
2023-04-20T16:06:03.707Z,41.70
2023-04-20T16:08:30.172Z,41.50
2023-04-20T16:10:56.683Z,41.70
2023-04-20T16:13:23.206Z,41.70
2023-04-20T16:15:49.721Z,41.90
2023-04-20T16:18:16.299Z,42.10
2023-04-20T16:20:42.778Z,42.10
2023-04-20T16:23:09.266Z,42.20
2023-04-20T16:25:35.721Z,41.70
2023-04-20T16:28:02.194Z,41.60
2023-04-20T16:30:28.718Z,41.60
2023-04-20T16:32:55.219Z,42.20
2023-04-20T16:35:21.741Z,41.50
2023-04-20T16:37:48.181Z,42.20
2023-04-20T16:40:14.694Z,42.10
2023-04-20T16:42:41.187Z,40.90
2023-04-20T16:45:07.706Z,41.70
2023-04-20T16:47:34.193Z,42.30
2023-04-20T16:50:00.692Z,41.80
2023-04-20T16:52:27.190Z,41.90
2023-04-20T16:57:20.617Z,41.70
2023-04-20T16:59:47.115Z,41.70
2023-04-20T17:02:13.708Z,42.00
2023-04-20T17:04:40.224Z,41.80
2023-04-20T17:07:06.673Z,42.30
2023-04-20T17:09:33.196Z,42.00
2023-04-20T17:11:59.658Z,42.70
2023-04-20T17:14:26.128Z,42.20
2023-04-20T17:16:52.788Z,42.40
2023-04-20T17:19:19.317Z,42.50
2023-04-20T17:21:45.828Z,42.90
2023-04-20T17:24:12.407Z,41.80
2023-04-20T17:26:38.914Z,42.30
2023-04-20T17:29:05.373Z,42.30
2023-04-20T17:31:31.869Z,42.90
2023-04-20T17:33:58.341Z,42.40
2023-04-20T17:36:24.851Z,42.30
2023-04-20T17:38:51.330Z,42.10
2023-04-20T17:41:17.864Z,42.90
2023-04-20T17:43:44.326Z,42.30
2023-04-20T17:46:10.903Z,42.80
2023-04-20T17:48:37.566Z,42.90
2023-04-20T17:51:04.057Z,42.90
2023-04-20T17:53:32.046Z,42.20
2023-04-20T17:55:58.633Z,42.70
2023-04-20T17:58:25.217Z,42.40
2023-04-20T18:00:51.687Z,42.80
2023-04-20T18:03:18.411Z,42.70
2023-04-20T18:05:45.003Z,42.90
2023-04-20T18:08:11.459Z,42.70
2023-04-20T18:10:37.976Z,42.20
2023-04-20T18:13:04.442Z,41.60
2023-04-20T18:15:30.952Z,42.10
2023-04-20T18:17:57.437Z,42.70
2023-04-20T18:20:23.957Z,42.10
2023-04-20T18:22:50.487Z,41.70
2023-04-20T18:25:17.069Z,42.90
2023-04-20T18:27:43.573Z,42.00
2023-04-20T18:30:10.098Z,42.10
2023-04-20T18:32:36.657Z,42.60
2023-04-20T18:35:03.222Z,42.70
2023-04-20T18:37:29.665Z,42.40
2023-04-20T18:39:56.529Z,42.30
2023-04-20T18:42:22.989Z,42.00
2023-04-20T18:44:49.531Z,42.00
2023-04-20T18:47:16.108Z,42.60
2023-04-20T18:49:42.543Z,41.90
2023-04-20T18:52:09.001Z,41.80
2023-04-20T18:54:35.440Z,42.00
2023-04-20T18:57:01.885Z,42.20
2023-04-20T18:59:28.315Z,41.90
2023-04-20T19:01:54.837Z,42.30
2023-04-20T19:04:21.602Z,42.60
2023-04-20T19:06:48.310Z,42.00
2023-04-20T19:09:14.794Z,42.60
2023-04-20T19:11:41.274Z,42.10
2023-04-20T19:14:07.771Z,42.20
2023-04-20T19:16:34.380Z,42.30
2023-04-20T19:19:00.981Z,42.20
2023-04-20T19:23:54.501Z,42.30
2023-04-20T19:26:21.018Z,42.60
2023-04-20T19:28:47.510Z,42.60
2023-04-20T19:31:15.952Z,42.10
2023-04-20T19:33:42.456Z,41.80
2023-04-20T19:36:08.935Z,42.50
2023-04-20T19:38:35.438Z,42.50
2023-04-20T19:41:01.948Z,42.50
2023-04-20T19:43:28.394Z,42.00
2023-04-20T19:45:54.990Z,42.40
2023-04-20T19:48:21.507Z,42.40
2023-04-20T19:50:48.002Z,41.70
2023-04-20T19:53:14.440Z,41.70
2023-04-20T19:55:40.936Z,41.80
2023-04-20T19:58:07.449Z,41.90
2023-04-20T20:00:33.944Z,42.40
2023-04-20T20:03:00.588Z,42.00
2023-04-20T20:05:27.180Z,41.80
2023-04-20T20:07:53.679Z,42.00
2023-04-20T20:10:20.157Z,41.70
2023-04-20T20:12:46.604Z,42.40
2023-04-20T20:15:13.111Z,42.40
2023-04-20T20:20:06.646Z,41.50
2023-04-20T20:22:33.098Z,41.80
2023-04-20T20:24:59.551Z,41.90
2023-04-20T20:29:53.015Z,41.90
2023-04-20T20:32:19.511Z,42.50
2023-04-20T20:34:46.028Z,41.90
2023-04-20T20:37:12.521Z,42.50
2023-04-20T20:39:39.029Z,41.90
2023-04-20T20:42:07.748Z,42.50
2023-04-20T20:44:35.559Z,41.90
2023-04-20T20:47:02.195Z,42.70
2023-04-20T20:49:28.702Z,42.20
2023-04-20T20:51:55.181Z,42.10
2023-04-20T20:54:21.717Z,42.10
2023-04-20T20:56:48.267Z,42.40
2023-04-20T20:59:14.782Z,41.60
2023-04-20T21:01:41.298Z,42.40
2023-04-20T21:04:07.970Z,41.80
2023-04-20T21:06:34.556Z,41.70
2023-04-20T21:09:00.994Z,41.60
2023-04-20T21:11:27.528Z,41.60
2023-04-20T21:13:54.021Z,41.50
2023-04-20T21:16:20.606Z,41.50
2023-04-20T21:18:47.137Z,42.10
2023-04-20T21:21:13.594Z,42.80
2023-04-20T21:23:40.070Z,41.60
2023-04-20T21:26:06.532Z,41.70
2023-04-20T21:28:33.010Z,42.20
2023-04-20T21:30:59.468Z,42.10
2023-04-20T21:33:26.051Z,41.70
2023-04-20T21:35:52.595Z,41.60
2023-04-20T21:38:19.053Z,41.80
2023-04-20T21:40:45.549Z,41.80
2023-04-20T21:43:11.992Z,41.60
2023-04-20T21:45:38.495Z,41.60
2023-04-20T21:48:04.993Z,41.40
2023-04-20T21:50:31.519Z,41.70
2023-04-20T21:52:58.041Z,41.60
2023-04-20T21:55:24.558Z,41.50
2023-04-20T21:57:51.069Z,41.70
2023-04-20T22:02:44.679Z,41.60
2023-04-20T22:05:11.230Z,41.40
2023-04-20T22:07:37.693Z,41.70
2023-04-20T22:10:04.161Z,42.10
2023-04-20T22:12:39.513Z,41.60
2023-04-20T22:15:06.290Z,41.70
2023-04-20T22:17:32.777Z,41.90
2023-04-20T22:19:59.286Z,41.60
2023-04-20T22:22:25.712Z,42.10
2023-04-20T22:24:52.193Z,42.30
2023-04-20T22:27:18.670Z,42.00
2023-04-20T22:29:45.147Z,41.70
2023-04-20T22:32:11.604Z,41.90
2023-04-20T22:34:38.052Z,41.50
2023-04-20T22:37:04.565Z,41.40
2023-04-20T22:39:31.037Z,41.40
2023-04-20T22:41:57.510Z,41.90
2023-04-20T22:44:23.953Z,41.40
2023-04-20T22:46:50.451Z,41.90
2023-04-20T22:49:17.188Z,41.90
2023-04-20T22:51:44.020Z,41.50
2023-04-20T22:54:10.590Z,41.40
2023-04-20T22:56:37.063Z,41.20
2023-04-20T22:59:03.578Z,41.40
2023-04-20T23:01:30.170Z,41.90
2023-04-20T23:03:56.744Z,41.50
2023-04-20T23:06:23.353Z,41.50
2023-04-20T23:08:49.851Z,41.40
2023-04-20T23:11:16.339Z,41.90
2023-04-20T23:13:42.863Z,41.20
2023-04-20T23:16:09.334Z,41.40
2023-04-20T23:18:35.849Z,41.80
2023-04-20T23:21:02.331Z,41.30
2023-04-20T23:25:55.886Z,40.90
2023-04-20T23:28:22.406Z,41.40
2023-04-20T23:30:48.860Z,41.30
2023-04-20T23:33:15.402Z,41.30
2023-04-20T23:38:08.957Z,41.60
2023-04-20T23:40:35.556Z,41.80
2023-04-20T23:43:02.049Z,41.50
2023-04-20T23:45:28.536Z,41.80
2023-04-20T23:47:55.107Z,41.30
2023-04-20T23:50:21.632Z,41.30
2023-04-20T23:52:48.107Z,41.90
2023-04-20T23:55:14.581Z,41.30
2023-04-20T23:57:41.125Z,41.30
